Terminal Aerodrome Forecast
Issued by NWS Detroit/Pontiac, MI

Home | Current Version | Previous Version | Text Only | Print | Product List | Glossary On
Versions: 1 2 3 4 5 6 7 8 9 10 11 12 13 14 15 16 17 18 19 20
000
FTUS43 KDTX 102042 AAA
TAFFNT
TAF AMD
KFNT 102042Z 1021/1118 27012KT P6SM -SHSN OVC035
      TEMPO 1021/1023 2SM -SHSN OVC020
     FM102300 23012KT P6SM -SHSN OVC035
     FM110000 22008KT P6SM SCT035 OVC120
     FM110600 20005KT 3SM -SN BKN025 OVC040
     FM111200 18008KT 2SM -SN OVC015
     FM111600 16010KT 3/4SM -SN OVC010=

USA.gov is the U.S. government's official web portal to all federal, state and local government web resources and services.